Time;durP1;ratioP1;P1;durP2;ratioP2;P2;SDS_P1;SDS_P2;PMS_P1;PMS_P2;Temp;Humidity;BMP_temperature;BMP_pressure;BME280_temperature;BME280_humidity;BME280_pressure;Samples;Min_cycle;Max_cycle;Signal;HPM_P1;HPM_P2
2023/01/22 00:01:08;;;;;;;;;;;;;;;;;;5074455;28;20053;-60
2023/01/22 00:03:34;;;;;;;;;;;;;;;;;;5084993;28;19931;-58
2023/01/22 00:06:00;;;;;;;;;;;;;;;;;;5084342;28;20014;-60
2023/01/22 00:08:25;;;;;;;;;;;;;;;;;;5082355;28;20058;-59
2023/01/22 00:10:51;;;;;;;;;;;;;;;;;;5079777;28;19929;-60
2023/01/22 00:13:17;;;;;;;;;;;;;;;;;;5082031;28;20412;-59
2023/01/22 00:15:43;;;;;;;;;;;;;;;;;;5080676;28;19924;-59
2023/01/22 00:18:09;;;;;;;;;;;;;;;;;;5078048;28;19926;-58
2023/01/22 00:20:35;;;;;;;;;;;;;;;;;;5079724;28;19951;-58
2023/01/22 00:23:01;;;;;;;;;;;;;;;;;;5077024;28;19927;-58
2023/01/22 00:25:27;;;;;;;;;;;;;;;;;;5079889;28;19924;-59
2023/01/22 00:27:53;;;;;;;;;;;;;;;;;;5076943;28;19924;-57
2023/01/22 00:30:18;;;;;;;;;;;;;;;;;;5080134;28;20518;-58
2023/01/22 00:32:44;;;;;;;;;;;;;;;;;;5081257;28;19928;-58
2023/01/22 00:35:10;;;;;;;;;;;;;;;;;;5076966;28;19947;-58
2023/01/22 00:37:36;;;;;;;;;;;;;;;;;;5075341;28;20022;-59
2023/01/22 00:40:02;;;;;;;;;;;;;;;;;;5079509;28;19926;-58
2023/01/22 00:42:28;;;;;;;;;;;;;;;;;;5074637;28;19981;-59
2023/01/22 00:44:54;;;;;;;;;;;;;;;;;;5075783;28;19973;-57
2023/01/22 00:47:20;;;;;;;;;;;;;;;;;;5073778;28;19981;-59
2023/01/22 00:49:46;;;;;;;;;;;;;;;;;;5071722;28;19920;-58
2023/01/22 00:52:12;;;;;;;;;;;;;;;;;;5071227;28;20304;-57
2023/01/22 00:54:37;;;;;;;;;;;;;;;;;;5073290;28;19982;-60
2023/01/22 00:57:03;;;;;;;;;;;;;;;;;;5071216;28;19929;-58
2023/01/22 00:59:29;;;;;;;;;;;;;;;;;;5075186;28;20438;-59
2023/01/22 01:01:55;;;;;;;;;;;;;;;;;;5075015;28;19924;-58
2023/01/22 01:04:21;;;;;;;;;;;;;;;;;;5072691;28;20039;-59
2023/01/22 01:06:47;;;;;;;;;;;;;;;;;;5071722;28;20279;-58
2023/01/22 01:09:13;;;;;;;;;;;;;;;;;;5073446;28;19935;-59
2023/01/22 01:11:39;;;;;;;;;;;;;;;;;;5073224;28;19927;-58
2023/01/22 01:14:05;;;;;;;;;;;;;;;;;;5076267;28;20408;-59
2023/01/22 01:16:31;;;;;;;;;;;;;;;;;;5074983;28;19946;-58
2023/01/22 01:18:57;;;;;;;;;;;;;;;;;;5075526;28;20275;-58
2023/01/22 01:21:23;;;;;;;;;;;;;;;;;;5075489;28;19950;-58
2023/01/22 01:23:49;;;;;;;;;;;;;;;;;;5075802;28;19920;-60
2023/01/22 01:26:15;;;;;;;;;;;;;;;;;;5075563;28;20376;-58
2023/01/22 01:28:41;;;;;;;;;;;;;;;;;;5075861;28;19931;-59
2023/01/22 01:31:07;;;;;;;;;;;;;;;;;;5076043;28;20307;-59
2023/01/22 01:33:33;;;;;;;;;;;;;;;;;;5077006;28;19931;-60
2023/01/22 01:35:59;;;;;;;;;;;;;;;;;;5075860;28;20384;-58
2023/01/22 01:38:24;;;;;;;;;;;;;;;;;;5074499;28;19974;-58
2023/01/22 01:40:50;;;;;;;;;;;;;;;;;;5074266;28;19920;-58
2023/01/22 01:43:16;;;;;;;;;;;;;;;;;;5075720;28;19968;-60
2023/01/22 01:45:42;;;;;;;;;;;;;;;;;;5075746;28;19965;-58
2023/01/22 01:48:08;;;;;;;;;;;;;;;;;;5074288;28;20048;-58
2023/01/22 01:50:34;;;;;;;;;;;;;;;;;;5075105;28;19976;-58
2023/01/22 01:53:00;;;;;;;;;;;;;;;;;;5075450;28;19931;-60
2023/01/22 01:55:26;;;;;;;;;;;;;;;;;;5073092;28;19928;-58
2023/01/22 01:57:52;;;;;;;;;;;;;;;;;;5075362;28;19927;-58
2023/01/22 02:00:18;;;;;;;;;;;;;;;;;;5074613;28;19927;-58
2023/01/22 02:02:44;;;;;;;;;;;;;;;;;;5074941;28;19962;-58
2023/01/22 02:05:10;;;;;;;;;;;;;;;;;;5074846;28;20777;-58
2023/01/22 02:07:36;;;;;;;;;;;;;;;;;;5073882;28;19924;-58
2023/01/22 02:10:05;;;;;;;;;;;;;;;;;;5075363;28;19930;-58
2023/01/22 02:12:30;;;;;;;;;;;;;;;;;;5075743;28;19924;-60
2023/01/22 02:14:56;;;;;;;;;;;;;;;;;;5074356;28;19924;-59
2023/01/22 02:17:22;;;;;;;;;;;;;;;;;;5074869;28;19927;-60
2023/01/22 02:19:48;;;;;;;;;;;;;;;;;;5075129;28;20272;-59
2023/01/22 02:22:14;;;;;;;;;;;;;;;;;;5074082;28;19920;-60
2023/01/22 02:24:40;;;;;;;;;;;;;;;;;;5081525;28;21082;-58
2023/01/22 02:27:06;;;;;;;;;;;;;;;;;;5076905;28;19927;-60
2023/01/22 02:29:32;;;;;;;;;;;;;;;;;;5077467;28;19924;-58
2023/01/22 02:31:58;;;;;;;;;;;;;;;;;;5078246;28;20303;-58
2023/01/22 02:34:24;;;;;;;;;;;;;;;;;;5077800;28;20405;-58
2023/01/22 02:36:50;;;;;;;;;;;;;;;;;;5078351;28;19919;-60
2023/01/22 02:39:16;;;;;;;;;;;;;;;;;;5077346;28;19924;-58
2023/01/22 02:41:42;;;;;;;;;;;;;;;;;;5078398;28;19928;-58
2023/01/22 02:44:07;;;;;;;;;;;;;;;;;;5077533;28;20376;-58
2023/01/22 02:46:33;;;;;;;;;;;;;;;;;;5078611;28;19930;-60
2023/01/22 02:48:59;;;;;;;;;;;;;;;;;;5075797;28;19927;-60
2023/01/22 02:51:25;;;;;;;;;;;;;;;;;;5080750;28;19981;-60
2023/01/22 02:53:51;;;;;;;;;;;;;;;;;;5077173;28;19924;-58
2023/01/22 02:56:17;;;;;;;;;;;;;;;;;;5074200;28;19924;-60
2023/01/22 02:58:43;;;;;;;;;;;;;;;;;;5073362;28;19946;-60
2023/01/22 03:01:17;;;;;;;;;;;;;;;;;;5073895;28;19964;-60
2023/01/22 03:03:43;;;;;;;;;;;;;;;;;;5071544;28;20346;-58
2023/01/22 03:06:09;;;;;;;;;;;;;;;;;;5073352;28;20032;-58
2023/01/22 03:08:35;;;;;;;;;;;;;;;;;;5073479;28;19924;-60
2023/01/22 03:11:01;;;;;;;;;;;;;;;;;;5073424;28;19920;-58
2023/01/22 03:21:42;;;;;;;;;;;;;;;;;;5074827;28;19924;-58
2023/01/22 03:24:08;;;;;;;;;;;;;;;;;;5073074;28;19928;-59
2023/01/22 03:26:34;;;;;;;;;;;;;;;;;;5075984;28;20368;-59
2023/01/22 03:29:00;;;;;;;;;;;;;;;;;;5073076;28;19924;-59
2023/01/22 03:31:26;;;;;;;;;;;;;;;;;;5073154;28;20029;-59
2023/01/22 03:33:52;;;;;;;;;;;;;;;;;;5072465;28;20306;-59
2023/01/22 03:36:18;;;;;;;;;;;;;;;;;;5073324;28;19920;-59
2023/01/22 03:38:44;;;;;;;;;;;;;;;;;;5073174;28;19924;-60
2023/01/22 03:41:10;;;;;;;;;;;;;;;;;;5073188;28;19925;-59
2023/01/22 03:43:36;;;;;;;;;;;;;;;;;;5073255;28;19924;-60
2023/01/22 03:46:02;;;;;;;;;;;;;;;;;;5072424;28;19927;-58
2023/01/22 03:48:28;;;;;;;;;;;;;;;;;;5072539;28;19923;-59
2023/01/22 03:50:54;;;;;;;;;;;;;;;;;;5072831;28;19924;-58
2023/01/22 03:53:20;;;;;;;;;;;;;;;;;;5072009;28;19920;-61
2023/01/22 03:55:46;;;;;;;;;;;;;;;;;;5072645;28;19920;-59
2023/01/22 03:58:11;;;;;;;;;;;;;;;;;;5074967;28;19924;-59
2023/01/22 04:00:37;;;;;;;;;;;;;;;;;;5072184;28;19946;-59
2023/01/22 04:03:03;;;;;;;;;;;;;;;;;;5073023;28;19959;-59
2023/01/22 04:05:29;;;;;;;;;;;;;;;;;;5072716;28;19924;-61
2023/01/22 04:07:55;;;;;;;;;;;;;;;;;;5072159;28;19920;-59
2023/01/22 04:10:21;;;;;;;;;;;;;;;;;;5071437;28;19967;-59
2023/01/22 04:12:47;;;;;;;;;;;;;;;;;;5075627;28;20015;-58
2023/01/22 04:15:13;;;;;;;;;;;;;;;;;;5074139;28;19920;-59
2023/01/22 04:17:39;;;;;;;;;;;;;;;;;;5073117;28;19954;-60
2023/01/22 04:20:04;;;;;;;;;;;;;;;;;;5072729;28;20590;-60
2023/01/22 04:22:30;;;;;;;;;;;;;;;;;;5073001;28;20415;-60
2023/01/22 04:24:56;;;;;;;;;;;;;;;;;;5072770;28;19924;-61
2023/01/22 04:27:22;;;;;;;;;;;;;;;;;;5072826;28;19924;-59
2023/01/22 04:29:48;;;;;;;;;;;;;;;;;;5074085;28;20304;-59
2023/01/22 04:32:14;;;;;;;;;;;;;;;;;;5074995;28;19924;-60
2023/01/22 04:34:40;;;;;;;;;;;;;;;;;;5071542;28;19927;-59
2023/01/22 04:37:06;;;;;;;;;;;;;;;;;;5071140;28;20792;-61
2023/01/22 04:39:32;;;;;;;;;;;;;;;;;;5072783;28;19923;-59
2023/01/22 04:41:58;;;;;;;;;;;;;;;;;;5071315;28;19923;-61
2023/01/22 04:44:23;;;;;;;;;;;;;;;;;;5070745;28;20425;-60
2023/01/22 04:46:49;;;;;;;;;;;;;;;;;;5072317;28;19920;-59
2023/01/22 04:49:15;;;;;;;;;;;;;;;;;;5072000;28;19921;-59
2023/01/22 04:51:41;;;;;;;;;;;;;;;;;;5072797;28;20955;-60
2023/01/22 04:54:07;;;;;;;;;;;;;;;;;;5075198;28;19923;-60
2023/01/22 04:56:33;;;;;;;;;;;;;;;;;;5070925;28;19935;-59
2023/01/22 04:58:59;;;;;;;;;;;;;;;;;;5072347;28;19920;-59
2023/01/22 05:01:25;;;;;;;;;;;;;;;;;;5071075;28;19943;-59
2023/01/22 05:03:51;;;;;;;;;;;;;;;;;;5071139;28;20019;-59
2023/01/22 05:06:17;;;;;;;;;;;;;;;;;;5071795;28;19924;-59
2023/01/22 05:08:43;;;;;;;;;;;;;;;;;;5071835;28;19924;-59
2023/01/22 05:11:09;;;;;;;;;;;;;;;;;;5074177;28;20387;-59
2023/01/22 05:13:34;;;;;;;;;;;;;;;;;;5072706;28;19959;-61
2023/01/22 05:16:00;;;;;;;;;;;;;;;;;;5073977;28;20422;-60
2023/01/22 05:18:26;;;;;;;;;;;;;;;;;;5070822;28;19934;-58
2023/01/22 05:20:52;;;;;;;;;;;;;;;;;;5072359;28;19920;-60
2023/01/22 05:23:18;;;;;;;;;;;;;;;;;;5076177;28;20015;-59
2023/01/22 05:25:44;;;;;;;;;;;;;;;;;;5074132;28;19924;-58
2023/01/22 05:28:10;;;;;;;;;;;;;;;;;;5071511;28;20376;-59
2023/01/22 05:30:36;;;;;;;;;;;;;;;;;;5075569;28;19926;-58
2023/01/22 05:33:02;;;;;;;;;;;;;;;;;;5075388;28;19931;-59
2023/01/22 05:35:27;;;;;;;;;;;;;;;;;;5074263;28;20758;-60
2023/01/22 05:37:53;;;;;;;;;;;;;;;;;;5074852;28;19924;-59
2023/01/22 05:40:19;;;;;;;;;;;;;;;;;;5074183;28;19920;-61
2023/01/22 05:42:45;;;;;;;;;;;;;;;;;;5074623;28;19927;-59
2023/01/22 05:45:11;;;;;;;;;;;;;;;;;;5072729;28;19928;-58
2023/01/22 05:47:37;;;;;;;;;;;;;;;;;;5075727;28;19965;-60
2023/01/22 05:50:03;;;;;;;;;;;;;;;;;;5072563;28;19920;-61
2023/01/22 05:52:29;;;;;;;;;;;;;;;;;;5072803;28;19924;-60
2023/01/22 05:54:55;;;;;;;;;;;;;;;;;;5072794;28;19924;-61
2023/01/22 05:57:21;;;;;;;;;;;;;;;;;;5073908;28;19966;-58
2023/01/22 05:59:47;;;;;;;;;;;;;;;;;;5077532;28;19931;-61
2023/01/22 06:02:12;;;;;;;;;;;;;;;;;;5074835;28;19923;-59
2023/01/22 06:04:38;;;;;;;;;;;;;;;;;;5077677;28;19928;-59
2023/01/22 06:07:04;;;;;;;;;;;;;;;;;;5076833;28;19946;-60
2023/01/22 06:09:30;;;;;;;;;;;;;;;;;;5077318;28;19927;-60
2023/01/22 06:11:56;;;;;;;;;;;;;;;;;;5077976;28;20426;-58
2023/01/22 06:14:22;;;;;;;;;;;;;;;;;;5075554;28;19979;-59
2023/01/22 06:16:49;;;;;;;;;;;;;;;;;;5079241;28;20022;-59
2023/01/22 06:19:15;;;;;;;;;;;;;;;;;;5077168;28;20003;-59
2023/01/22 06:21:42;;;;;;;;;;;;;;;;;;5078708;28;19935;-59
2023/01/22 06:24:08;;;;;;;;;;;;;;;;;;5076921;28;19920;-59
2023/01/22 06:26:34;;;;;;;;;;;;;;;;;;5079786;28;19928;-61
2023/01/22 06:29:00;;;;;;;;;;;;;;;;;;5076516;28;19924;-61
2023/01/22 06:31:26;;;;;;;;;;;;;;;;;;5076006;28;19965;-59
2023/01/22 06:33:52;;;;;;;;;;;;;;;;;;5076640;28;19924;-59
2023/01/22 06:36:17;;;;;;;;;;;;;;;;;;5078598;28;19920;-59
2023/01/22 06:38:43;;;;;;;;;;;;;;;;;;5080642;28;20186;-59
2023/01/22 06:41:09;;;;;;;;;;;;;;;;;;5080476;28;20004;-59
2023/01/22 06:43:36;;;;;;;;;;;;;;;;;;5081239;28;20371;-59
2023/01/22 06:46:02;;;;;;;;;;;;;;;;;;5078335;28;19925;-61
2023/01/22 06:48:28;;;;;;;;;;;;;;;;;;5078976;28;19946;-60
2023/01/22 06:50:54;;;;;;;;;;;;;;;;;;5078232;28;19931;-59
2023/01/22 06:53:20;;;;;;;;;;;;;;;;;;5080281;28;19932;-61
2023/01/22 06:55:46;;;;;;;;;;;;;;;;;;5079727;28;20360;-58
2023/01/22 06:58:11;;;;;;;;;;;;;;;;;;5076992;28;19924;-59
2023/01/22 07:00:37;;;;;;;;;;;;;;;;;;5078320;28;19945;-59
2023/01/22 07:03:03;;;;;;;;;;;;;;;;;;5078854;28;20050;-59
2023/01/22 07:05:29;;;;;;;;;;;;;;;;;;5078118;28;19923;-61
2023/01/22 07:07:55;;;;;;;;;;;;;;;;;;5076398;28;19921;-61
2023/01/22 07:10:21;;;;;;;;;;;;;;;;;;5074803;28;20372;-59
2023/01/22 07:12:47;;;;;;;;;;;;;;;;;;5077137;28;19920;-61
2023/01/22 07:15:13;;;;;;;;;;;;;;;;;;5078887;28;19928;-58
2023/01/22 07:17:39;;;;;;;;;;;;;;;;;;5079657;28;19920;-60
2023/01/22 07:20:05;;;;;;;;;;;;;;;;;;5076653;28;19924;-60
2023/01/22 07:22:33;;;;;;;;;;;;;;;;;;5075471;28;19943;-59
2023/01/22 07:24:59;;;;;;;;;;;;;;;;;;5077606;28;19966;-60
2023/01/22 07:27:25;;;;;;;;;;;;;;;;;;5078089;28;19964;-58
2023/01/22 07:29:51;;;;;;;;;;;;;;;;;;5078766;28;19959;-59
2023/01/22 07:32:17;;;;;;;;;;;;;;;;;;5077307;28;19921;-60
2023/01/22 07:34:43;;;;;;;;;;;;;;;;;;5079385;28;20035;-58
2023/01/22 07:37:09;;;;;;;;;;;;;;;;;;5074544;28;19935;-59
2023/01/22 07:39:35;;;;;;;;;;;;;;;;;;5076622;28;19924;-58
2023/01/22 07:42:01;;;;;;;;;;;;;;;;;;5078483;28;19924;-60
2023/01/22 07:44:27;;;;;;;;;;;;;;;;;;5076370;28;19927;-60
2023/01/22 07:46:53;;;;;;;;;;;;;;;;;;5078205;28;19927;-59
2023/01/22 07:49:18;;;;;;;;;;;;;;;;;;5077740;28;19920;-59
2023/01/22 07:51:44;;;;;;;;;;;;;;;;;;5075808;28;19947;-58
2023/01/22 07:54:10;;;;;;;;;;;;;;;;;;5077168;28;19935;-58
2023/01/22 07:56:36;;;;;;;;;;;;;;;;;;5077438;28;19931;-58
2023/01/22 07:59:02;;;;;;;;;;;;;;;;;;5074522;28;19920;-58
2023/01/22 08:01:28;;;;;;;;;;;;;;;;;;5078008;28;19936;-60
2023/01/22 08:03:56;;;;;;;;;;;;;;;;;;5077682;28;19963;-60
2023/01/22 08:06:22;;;;;;;;;;;;;;;;;;5075705;28;19932;-60
2023/01/22 08:08:47;;;;;;;;;;;;;;;;;;5077015;28;19920;-60
2023/01/22 08:11:13;;;;;;;;;;;;;;;;;;5075982;28;19924;-58
2023/01/22 08:13:39;;;;;;;;;;;;;;;;;;5077728;28;19931;-59
2023/01/22 08:16:05;;;;;;;;;;;;;;;;;;5078377;28;19920;-59
2023/01/22 08:18:31;;;;;;;;;;;;;;;;;;5074595;28;19927;-60
2023/01/22 08:20:57;;;;;;;;;;;;;;;;;;5073530;28;19924;-58
2023/01/22 08:23:23;;;;;;;;;;;;;;;;;;5077409;28;19920;-60
2023/01/22 08:25:49;;;;;;;;;;;;;;;;;;5075796;28;19920;-59
2023/01/22 08:28:15;;;;;;;;;;;;;;;;;;5073447;28;19927;-58
2023/01/22 08:30:41;;;;;;;;;;;;;;;;;;5078137;28;19938;-58
2023/01/22 08:33:07;;;;;;;;;;;;;;;;;;5076458;28;19920;-58
2023/01/22 08:35:32;;;;;;;;;;;;;;;;;;5078512;28;19928;-59
2023/01/22 08:37:58;;;;;;;;;;;;;;;;;;5076674;28;19968;-58
2023/01/22 08:40:24;;;;;;;;;;;;;;;;;;5075247;28;19924;-58
2023/01/22 08:42:50;;;;;;;;;;;;;;;;;;5076745;28;20349;-60
2023/01/22 08:45:16;;;;;;;;;;;;;;;;;;5075009;28;20565;-58
2023/01/22 08:47:42;;;;;;;;;;;;;;;;;;5073313;28;19920;-59
2023/01/22 08:50:08;;;;;;;;;;;;;;;;;;5074595;28;20029;-59
2023/01/22 08:52:34;;;;;;;;;;;;;;;;;;5075881;28;19970;-59
2023/01/22 08:55:00;;;;;;;;;;;;;;;;;;5075149;28;19959;-59
2023/01/22 08:57:26;;;;;;;;;;;;;;;;;;5073327;28;20032;-59
2023/01/22 08:59:52;;;;;;;;;;;;;;;;;;5076801;28;19965;-58
2023/01/22 09:02:17;;;;;;;;;;;;;;;;;;5073543;28;20299;-58
2023/01/22 09:04:44;;;;;;;;;;;;;;;;;;5075025;28;19920;-60
2023/01/22 09:07:10;;;;;;;;;;;;;;;;;;5074889;28;19939;-59
2023/01/22 09:09:35;;;;;;;;;;;;;;;;;;5075689;28;20678;-58
2023/01/22 09:12:01;;;;;;;;;;;;;;;;;;5074847;28;20038;-58
2023/01/22 09:14:27;;;;;;;;;;;;;;;;;;5078262;28;20029;-59
2023/01/22 09:16:53;;;;;;;;;;;;;;;;;;5078902;28;20669;-59
2023/01/22 09:19:19;;;;;;;;;;;;;;;;;;5075163;28;19939;-58
2023/01/22 09:21:45;;;;;;;;;;;;;;;;;;5076493;28;19926;-58
2023/01/22 09:24:11;;;;;;;;;;;;;;;;;;5075494;28;19924;-58
2023/01/22 09:26:37;;;;;;;;;;;;;;;;;;5076366;28;19924;-59
2023/01/22 09:29:04;;;;;;;;;;;;;;;;;;5080347;28;19931;-59
2023/01/22 09:31:30;;;;;;;;;;;;;;;;;;5076313;28;19977;-59
2023/01/22 09:33:56;;;;;;;;;;;;;;;;;;5079392;28;19920;-59
2023/01/22 09:36:22;;;;;;;;;;;;;;;;;;5079701;28;20555;-58
2023/01/22 09:38:48;;;;;;;;;;;;;;;;;;5082100;28;19920;-59
2023/01/22 09:41:14;;;;;;;;;;;;;;;;;;5077925;28;20050;-60
2023/01/22 09:43:40;;;;;;;;;;;;;;;;;;5080101;28;20628;-60
2023/01/22 09:46:06;;;;;;;;;;;;;;;;;;5077427;28;19999;-60
2023/01/22 09:48:31;;;;;;;;;;;;;;;;;;5075992;28;19924;-59
2023/01/22 09:50:57;;;;;;;;;;;;;;;;;;5075103;28;20045;-56
2023/01/22 09:53:23;;;;;;;;;;;;;;;;;;5079987;28;19928;-60
2023/01/22 09:55:49;;;;;;;;;;;;;;;;;;5081969;28;19920;-52
2023/01/22 09:58:15;;;;;;;;;;;;;;;;;;5069386;28;19928;-62
2023/01/22 10:00:43;;;;;;;;;;;;;;;;;;5080035;28;19928;-57
2023/01/22 10:03:08;;;;;;;;;;;;;;;;;;5080834;28;19924;-58
2023/01/22 10:05:34;;;;;;;;;;;;;;;;;;5075969;28;20600;-56
2023/01/22 10:08:00;;;;;;;;;;;;;;;;;;5090623;28;19966;-55
2023/01/22 10:10:26;;;;;;;;;;;;;;;;;;5090056;28;20478;-55
2023/01/22 10:12:52;;;;;;;;;;;;;;;;;;5074886;28;20003;-57
2023/01/22 10:15:18;;;;;;;;;;;;;;;;;;5069845;28;20015;-57
2023/01/22 10:17:44;;;;;;;;;;;;;;;;;;5070441;28;19928;-55
2023/01/22 10:20:11;;;;;;;;;;;;;;;;;;5069311;28;20400;-56
2023/01/22 10:22:37;;;;;;;;;;;;;;;;;;5076766;28;20415;-55
2023/01/22 10:25:03;;;;;;;;;;;;;;;;;;5069505;28;19928;-55
2023/01/22 10:27:29;;;;;;;;;;;;;;;;;;5069085;28;19932;-54
2023/01/22 10:29:54;;;;;;;;;;;;;;;;;;5089661;28;20457;-55
2023/01/22 10:32:20;;;;;;;;;;;;;;;;;;5089322;28;19946;-59
2023/01/22 10:34:46;;;;;;;;;;;;;;;;;;5079197;28;19920;-60
2023/01/22 10:37:13;;;;;;;;;;;;;;;;;;5089598;28;19920;-58
2023/01/22 10:39:39;;;;;;;;;;;;;;;;;;5089838;28;20662;-58
2023/01/22 10:42:05;;;;;;;;;;;;;;;;;;5081890;28;19924;-59
2023/01/22 10:44:31;;;;;;;;;;;;;;;;;;5087979;28;19927;-58
2023/01/22 10:46:57;;;;;;;;;;;;;;;;;;5084377;28;19930;-59
2023/01/22 10:49:23;;;;;;;;;;;;;;;;;;5088602;28;19926;-62
2023/01/22 10:51:49;;;;;;;;;;;;;;;;;;5082308;28;19920;-60
2023/01/22 10:54:14;;;;;;;;;;;;;;;;;;5083371;28;19924;-58
2023/01/22 10:56:40;;;;;;;;;;;;;;;;;;5084024;28;20376;-58
2023/01/22 10:59:06;;;;;;;;;;;;;;;;;;5079634;28;19927;-60
2023/01/22 11:01:32;;;;;;;;;;;;;;;;;;5072842;28;20012;-59
2023/01/22 11:03:58;;;;;;;;;;;;;;;;;;5083563;28;20464;-60
2023/01/22 11:06:24;;;;;;;;;;;;;;;;;;5079217;28;20427;-59
2023/01/22 11:08:50;;;;;;;;;;;;;;;;;;5077403;28;20063;-61
2023/01/22 11:11:16;;;;;;;;;;;;;;;;;;5084941;28;19924;-59
2023/01/22 11:13:42;;;;;;;;;;;;;;;;;;5074303;28;19924;-61
2023/01/22 11:16:09;;;;;;;;;;;;;;;;;;5074359;28;20326;-59
2023/01/22 11:18:35;;;;;;;;;;;;;;;;;;5086195;28;19920;-60
2023/01/22 11:21:01;;;;;;;;;;;;;;;;;;5086541;28;19927;-59
2023/01/22 11:23:27;;;;;;;;;;;;;;;;;;5077979;28;19920;-60
2023/01/22 11:25:53;;;;;;;;;;;;;;;;;;5079721;28;19929;-58
2023/01/22 11:28:19;;;;;;;;;;;;;;;;;;5085255;28;19935;-60
2023/01/22 11:30:45;;;;;;;;;;;;;;;;;;5088035;28;19923;-60
2023/01/22 11:33:11;;;;;;;;;;;;;;;;;;5082558;28;19928;-58
2023/01/22 11:35:36;;;;;;;;;;;;;;;;;;5079622;28;19920;-58
2023/01/22 11:38:02;;;;;;;;;;;;;;;;;;5067436;28;20296;-60
2023/01/22 11:40:28;;;;;;;;;;;;;;;;;;5082132;28;20441;-58
2023/01/22 11:42:54;;;;;;;;;;;;;;;;;;5072181;28;19930;-57
2023/01/22 11:45:20;;;;;;;;;;;;;;;;;;5069839;28;19923;-58
2023/01/22 11:47:46;;;;;;;;;;;;;;;;;;5085923;28;19928;-60
2023/01/22 11:50:12;;;;;;;;;;;;;;;;;;5087104;28;19945;-59
2023/01/22 11:52:38;;;;;;;;;;;;;;;;;;5082934;28;19963;-58
2023/01/22 11:55:04;;;;;;;;;;;;;;;;;;5081413;28;20517;-58
2023/01/22 11:57:30;;;;;;;;;;;;;;;;;;5066970;28;19931;-58
2023/01/22 11:59:56;;;;;;;;;;;;;;;;;;5072814;28;19932;-58
2023/01/22 12:02:21;;;;;;;;;;;;;;;;;;5067182;28;19920;-57
2023/01/22 12:04:47;;;;;;;;;;;;;;;;;;5066411;28;19975;-58
2023/01/22 12:07:13;;;;;;;;;;;;;;;;;;5070408;28;20007;-59
2023/01/22 12:09:39;;;;;;;;;;;;;;;;;;5067133;28;19981;-58
2023/01/22 12:12:05;;;;;;;;;;;;;;;;;;5068723;28;19946;-59
2023/01/22 12:14:31;;;;;;;;;;;;;;;;;;5081679;28;19973;-58
2023/01/22 12:16:57;;;;;;;;;;;;;;;;;;5070396;28;19932;-58
2023/01/22 12:19:23;;;;;;;;;;;;;;;;;;5078484;28;19920;-58
2023/01/22 12:21:49;;;;;;;;;;;;;;;;;;5069435;28;19927;-55
2023/01/22 12:24:15;;;;;;;;;;;;;;;;;;5078750;28;20424;-57
2023/01/22 12:26:41;;;;;;;;;;;;;;;;;;5074309;28;20135;-59
2023/01/22 12:29:07;;;;;;;;;;;;;;;;;;5075359;28;19960;-59
2023/01/22 12:31:32;;;;;;;;;;;;;;;;;;5074352;28;20451;-57
2023/01/22 12:33:58;;;;;;;;;;;;;;;;;;5079015;28;20290;-57
2023/01/22 12:36:24;;;;;;;;;;;;;;;;;;5085614;28;20241;-57
2023/01/22 12:38:50;;;;;;;;;;;;;;;;;;5079245;28;19920;-57
2023/01/22 12:41:16;;;;;;;;;;;;;;;;;;5084265;28;19927;-57
2023/01/22 12:43:42;;;;;;;;;;;;;;;;;;5080429;28;19959;-58
2023/01/22 12:46:08;;;;;;;;;;;;;;;;;;5083471;28;20381;-57
2023/01/22 12:48:34;;;;;;;;;;;;;;;;;;5082053;28;19932;-56
2023/01/22 12:51:00;;;;;;;;;;;;;;;;;;5080351;28;19924;-57
2023/01/22 12:53:26;;;;;;;;;;;;;;;;;;5078846;28;19938;-57
2023/01/22 12:55:52;;;;;;;;;;;;;;;;;;5079110;28;19930;-57
2023/01/22 12:58:18;;;;;;;;;;;;;;;;;;5078632;28;19929;-57
2023/01/22 13:00:44;;;;;;;;;;;;;;;;;;5078752;28;20384;-57
2023/01/22 13:03:10;;;;;;;;;;;;;;;;;;5077248;28;19943;-57
2023/01/22 13:05:36;;;;;;;;;;;;;;;;;;5076466;28;20384;-59
2023/01/22 13:08:02;;;;;;;;;;;;;;;;;;5078676;28;19920;-59
2023/01/22 13:10:28;;;;;;;;;;;;;;;;;;5079956;28;20360;-57
2023/01/22 13:12:54;;;;;;;;;;;;;;;;;;5080232;28;20049;-57
2023/01/22 13:15:20;;;;;;;;;;;;;;;;;;5082097;28;19942;-57
2023/01/22 13:17:46;;;;;;;;;;;;;;;;;;5081395;28;20346;-57
2023/01/22 13:20:11;;;;;;;;;;;;;;;;;;5083380;28;20410;-57
2023/01/22 13:22:37;;;;;;;;;;;;;;;;;;5078867;28;19946;-56
2023/01/22 13:25:03;;;;;;;;;;;;;;;;;;5080790;28;19973;-57
2023/01/22 13:27:29;;;;;;;;;;;;;;;;;;5078981;28;20296;-59
2023/01/22 13:29:55;;;;;;;;;;;;;;;;;;5079426;28;19920;-56
2023/01/22 13:32:21;;;;;;;;;;;;;;;;;;5075088;28;19965;-56
2023/01/22 13:34:47;;;;;;;;;;;;;;;;;;5083023;28;19924;-56
2023/01/22 13:37:13;;;;;;;;;;;;;;;;;;5077363;28;20423;-57
2023/01/22 13:39:39;;;;;;;;;;;;;;;;;;5078321;28;19998;-57
2023/01/22 13:42:05;;;;;;;;;;;;;;;;;;5080980;28;20027;-58
2023/01/22 13:44:31;;;;;;;;;;;;;;;;;;5079784;28;19926;-56
2023/01/22 13:46:57;;;;;;;;;;;;;;;;;;5077182;28;20458;-59
2023/01/22 13:49:23;;;;;;;;;;;;;;;;;;5079206;28;20030;-59
2023/01/22 13:51:49;;;;;;;;;;;;;;;;;;5079393;28;19926;-57
2023/01/22 13:54:15;;;;;;;;;;;;;;;;;;5079860;28;20054;-57
2023/01/22 13:56:41;;;;;;;;;;;;;;;;;;5081637;28;20074;-57
2023/01/22 13:59:07;;;;;;;;;;;;;;;;;;5078457;28;20006;-57
2023/01/22 14:01:33;;;;;;;;;;;;;;;;;;5081643;28;19920;-52
2023/01/22 14:03:59;;;;;;;;;;;;;;;;;;5083495;28;19924;-61
2023/01/22 14:06:25;;;;;;;;;;;;;;;;;;5079046;28;19959;-55
2023/01/22 14:08:51;;;;;;;;;;;;;;;;;;5072307;28;20071;-55
2023/01/22 14:11:17;;;;;;;;;;;;;;;;;;5077723;28;20343;-55
2023/01/22 14:13:43;;;;;;;;;;;;;;;;;;5074770;28;20394;-55
2023/01/22 14:16:08;;;;;;;;;;;;;;;;;;5074423;28;19974;-55
2023/01/22 14:18:34;;;;;;;;;;;;;;;;;;5068011;28;20450;-55
2023/01/22 14:21:00;;;;;;;;;;;;;;;;;;5076330;28;20022;-55
2023/01/22 14:23:26;;;;;;;;;;;;;;;;;;5075411;28;20371;-55
2023/01/22 14:25:52;;;;;;;;;;;;;;;;;;5071714;28;19920;-55
2023/01/22 14:28:18;;;;;;;;;;;;;;;;;;5072586;28;19920;-55
2023/01/22 14:30:44;;;;;;;;;;;;;;;;;;5072259;28;20332;-55
2023/01/22 14:33:10;;;;;;;;;;;;;;;;;;5073774;28;19955;-55
2023/01/22 14:35:36;;;;;;;;;;;;;;;;;;5072680;28;20265;-55
2023/01/22 14:38:02;;;;;;;;;;;;;;;;;;5077598;28;19966;-54
2023/01/22 14:40:29;;;;;;;;;;;;;;;;;;5070255;28;19975;-56
2023/01/22 14:42:55;;;;;;;;;;;;;;;;;;5079374;28;19935;-56
2023/01/22 14:45:20;;;;;;;;;;;;;;;;;;5081542;28;19931;-55
2023/01/22 14:47:46;;;;;;;;;;;;;;;;;;5073149;28;19924;-54
2023/01/22 14:50:12;;;;;;;;;;;;;;;;;;5071992;28;20484;-55
2023/01/22 14:52:38;;;;;;;;;;;;;;;;;;5073111;28;19921;-54
2023/01/22 14:55:04;;;;;;;;;;;;;;;;;;5073218;28;19981;-54
2023/01/22 14:57:30;;;;;;;;;;;;;;;;;;5068381;28;20273;-54
2023/01/22 14:59:56;;;;;;;;;;;;;;;;;;5070378;28;19920;-53
2023/01/22 15:02:22;;;;;;;;;;;;;;;;;;5081650;28;19920;-54
2023/01/22 15:04:48;;;;;;;;;;;;;;;;;;5070283;28;19920;-54
2023/01/22 15:07:13;;;;;;;;;;;;;;;;;;5071840;28;19920;-54
2023/01/22 15:09:39;;;;;;;;;;;;;;;;;;5075669;28;19920;-54
2023/01/22 15:12:05;;;;;;;;;;;;;;;;;;5076044;28;19920;-54
2023/01/22 15:14:31;;;;;;;;;;;;;;;;;;5082659;28;19919;-54
2023/01/22 15:16:57;;;;;;;;;;;;;;;;;;5073604;28;20003;-55
2023/01/22 15:19:23;;;;;;;;;;;;;;;;;;5071032;28;20443;-53
2023/01/22 15:21:49;;;;;;;;;;;;;;;;;;5070988;28;19921;-54
2023/01/22 15:24:15;;;;;;;;;;;;;;;;;;5068141;28;20023;-54
2023/01/22 15:26:41;;;;;;;;;;;;;;;;;;5068350;28;19920;-54
2023/01/22 15:29:07;;;;;;;;;;;;;;;;;;5069535;28;19920;-53
2023/01/22 15:31:33;;;;;;;;;;;;;;;;;;5067388;28;19974;-54
2023/01/22 15:34:00;;;;;;;;;;;;;;;;;;5070201;28;19921;-54
2023/01/22 15:36:26;;;;;;;;;;;;;;;;;;5071732;28;20046;-55
2023/01/22 15:38:52;;;;;;;;;;;;;;;;;;5077235;28;19999;-54
2023/01/22 15:41:18;;;;;;;;;;;;;;;;;;5081667;28;19920;-53
2023/01/22 15:43:49;;;;;;;;;;;;;;;;;;5084631;28;19919;-54
2023/01/22 15:46:15;;;;;;;;;;;;;;;;;;5075915;28;20430;-54
2023/01/22 15:48:41;;;;;;;;;;;;;;;;;;5078968;28;19964;-54
2023/01/22 15:51:07;;;;;;;;;;;;;;;;;;5081861;28;19924;-54
2023/01/22 15:53:33;;;;;;;;;;;;;;;;;;5081844;28;20349;-57
2023/01/22 15:55:59;;;;;;;;;;;;;;;;;;5076872;28;20306;-55
2023/01/22 15:58:25;;;;;;;;;;;;;;;;;;5084915;28;19920;-55
2023/01/22 16:00:51;;;;;;;;;;;;;;;;;;5079957;28;19927;-54
2023/01/22 16:03:17;;;;;;;;;;;;;;;;;;5084637;28;19927;-54
2023/01/22 16:05:43;;;;;;;;;;;;;;;;;;5079153;28;20399;-54
2023/01/22 16:08:09;;;;;;;;;;;;;;;;;;5082020;28;19927;-54
2023/01/22 16:10:35;;;;;;;;;;;;;;;;;;5075047;28;19989;-54
2023/01/22 16:13:01;;;;;;;;;;;;;;;;;;5085582;28;20415;-53
2023/01/22 16:15:27;;;;;;;;;;;;;;;;;;5082021;28;20292;-55
2023/01/22 16:17:53;;;;;;;;;;;;;;;;;;5086454;28;19920;-56
2023/01/22 16:20:19;;;;;;;;;;;;;;;;;;5085117;28;19980;-55
2023/01/22 16:22:44;;;;;;;;;;;;;;;;;;5078718;28;19950;-55
2023/01/22 16:25:10;;;;;;;;;;;;;;;;;;5084568;28;20309;-55
2023/01/22 16:27:36;;;;;;;;;;;;;;;;;;5077795;28;19920;-55
2023/01/22 16:30:02;;;;;;;;;;;;;;;;;;5086232;28;20319;-54
2023/01/22 16:32:28;;;;;;;;;;;;;;;;;;5081406;28;20014;-55
2023/01/22 16:34:54;;;;;;;;;;;;;;;;;;5080198;28;19924;-56
2023/01/22 16:37:20;;;;;;;;;;;;;;;;;;5081345;28;19920;-54
2023/01/22 16:39:46;;;;;;;;;;;;;;;;;;5083798;28;19987;-55
2023/01/22 16:42:12;;;;;;;;;;;;;;;;;;5081238;28;19973;-55
2023/01/22 16:44:38;;;;;;;;;;;;;;;;;;5086392;28;20040;-55